createdAt,value
2023-03-26T00:01:37.087Z,5.30
2023-03-26T00:04:39.409Z,6.18
2023-03-26T00:07:42.763Z,5.30
2023-03-26T00:10:45.078Z,5.83
2023-03-26T00:13:48.171Z,6.53
2023-03-26T00:16:50.672Z,5.18
2023-03-26T00:19:53.737Z,5.30
2023-03-26T00:22:56.532Z,4.75
2023-03-26T00:25:58.902Z,5.25
2023-03-26T00:29:03.561Z,5.38
2023-03-26T00:32:06.626Z,5.25
2023-03-26T00:35:09.543Z,5.00
2023-03-26T00:38:11.857Z,4.75
2023-03-26T00:41:26.981Z,3.67
2023-03-26T00:44:29.619Z,5.22
2023-03-26T00:47:32.113Z,5.93
2023-03-26T00:50:34.444Z,5.45
2023-03-26T00:53:39.037Z,5.22
2023-03-26T00:56:41.598Z,4.50
2023-03-26T00:59:43.970Z,5.38
2023-03-26T01:02:46.517Z,4.50
2023-03-26T01:05:54.827Z,5.10
2023-03-26T01:09:00.476Z,4.60
2023-03-26T01:12:06.755Z,4.10
2023-03-26T01:15:09.909Z,4.00
2023-03-26T01:18:14.261Z,4.30
2023-03-26T01:21:23.502Z,4.25
2023-03-26T01:24:25.925Z,5.15
2023-03-26T01:27:50.177Z,4.65
2023-03-26T01:31:01.736Z,4.60
2023-03-26T01:34:24.199Z,5.53
2023-03-26T01:37:28.227Z,5.03
2023-03-26T01:40:38.791Z,5.68
2023-03-26T01:44:18.601Z,4.95
2023-03-26T01:47:21.611Z,5.00
2023-03-26T01:50:24.068Z,5.13
2023-03-26T01:53:26.865Z,5.63
2023-03-26T01:56:36.847Z,6.00
2023-03-26T02:00:13.054Z,6.63
2023-03-26T02:03:32.144Z,5.57
2023-03-26T02:06:46.422Z,5.15
2023-03-26T02:09:52.820Z,4.63
2023-03-26T02:12:55.753Z,5.38
2023-03-26T02:16:00.982Z,4.95
2023-03-26T02:19:04.613Z,6.60
2023-03-26T02:22:11.247Z,5.05
2023-03-26T02:25:17.213Z,4.78
2023-03-26T02:28:20.124Z,6.20
2023-03-26T02:31:26.454Z,5.70
2023-03-26T02:34:29.458Z,6.03
2023-03-26T02:37:33.998Z,4.93
2023-03-26T02:40:44.462Z,4.55
2023-03-26T02:43:47.012Z,4.72
2023-03-26T02:46:52.501Z,4.47
2023-03-26T02:50:13.525Z,3.40
2023-03-26T02:53:48.262Z,3.97
2023-03-26T02:57:07.028Z,3.40
2023-03-26T03:00:38.611Z,4.00
2023-03-26T03:04:13.392Z,4.07
2023-03-26T03:07:16.715Z,4.93
2023-03-26T03:10:22.203Z,4.78
2023-03-26T03:13:46.380Z,5.22
2023-03-26T03:16:54.471Z,5.28
2023-03-26T03:19:58.101Z,4.50
2023-03-26T03:23:00.872Z,3.67
2023-03-26T03:26:04.722Z,4.15
2023-03-26T03:29:09.458Z,4.45
2023-03-26T03:32:12.649Z,3.88
2023-03-26T03:35:23.782Z,4.30
2023-03-26T03:38:30.854Z,6.00
2023-03-26T03:41:34.089Z,7.38
2023-03-26T03:44:39.436Z,4.28
2023-03-26T03:47:51.302Z,4.30
2023-03-26T03:50:59.980Z,4.18
2023-03-26T03:54:06.843Z,4.45
2023-03-26T03:57:22.148Z,4.40
2023-03-26T04:00:41.765Z,5.03
2023-03-26T04:04:10.621Z,4.10
2023-03-26T04:07:39.627Z,3.08
2023-03-26T04:10:43.851Z,2.45
2023-03-26T04:13:52.082Z,4.30
2023-03-26T04:17:21.987Z,5.93
2023-03-26T04:20:26.024Z,7.40
2023-03-26T04:23:29.413Z,15.70
2023-03-26T04:26:41.266Z,7.70
2023-03-26T04:29:50.409Z,3.80
2023-03-26T04:32:58.770Z,5.40
2023-03-26T04:36:04.376Z,5.15
2023-03-26T04:39:13.436Z,6.70
2023-03-26T04:42:34.259Z,3.88
2023-03-26T04:45:58.098Z,3.23
2023-03-26T04:49:03.567Z,6.88
2023-03-26T04:52:06.386Z,2.80
2023-03-26T04:55:42.320Z,5.07
2023-03-26T04:58:57.054Z,4.53
2023-03-26T05:02:02.625Z,4.15
2023-03-26T05:05:10.354Z,3.67
2023-03-26T05:08:13.148Z,3.33
2023-03-26T05:11:15.679Z,3.90
2023-03-26T05:14:18.460Z,4.65
2023-03-26T05:17:25.321Z,8.93
2023-03-26T05:20:30.353Z,4.47
2023-03-26T05:23:32.981Z,7.72
2023-03-26T05:26:54.814Z,5.30
2023-03-26T05:30:02.960Z,3.40
2023-03-26T05:33:10.831Z,7.60
2023-03-26T05:36:21.125Z,7.70
2023-03-26T05:39:31.967Z,4.15
2023-03-26T05:42:37.090Z,4.22
2023-03-26T05:46:00.625Z,4.30
2023-03-26T05:49:06.371Z,4.65
2023-03-26T05:52:15.311Z,5.82
2023-03-26T05:55:50.630Z,8.57
2023-03-26T05:59:11.293Z,3.97
2023-03-26T06:02:26.115Z,3.75
2023-03-26T06:05:52.060Z,4.55
2023-03-26T06:09:06.868Z,4.55
2023-03-26T06:12:10.661Z,4.53
2023-03-26T06:15:14.515Z,4.93
2023-03-26T06:18:37.589Z,4.88
2023-03-26T06:21:58.569Z,4.93
2023-03-26T06:25:07.279Z,4.75
2023-03-26T06:28:23.744Z,5.15
2023-03-26T06:31:42.192Z,4.20
2023-03-26T06:35:07.461Z,4.20
2023-03-26T06:38:09.873Z,4.95
2023-03-26T06:41:12.454Z,3.63
2023-03-26T06:44:14.727Z,4.15
2023-03-26T06:47:46.362Z,3.90
2023-03-26T06:50:51.534Z,4.10
2023-03-26T06:54:07.637Z,4.43
2023-03-26T06:57:18.970Z,3.65
2023-03-26T07:00:40.437Z,3.90
2023-03-26T07:04:08.966Z,3.70
2023-03-26T07:07:30.023Z,3.17
2023-03-26T07:10:58.438Z,3.38
2023-03-26T07:14:30.536Z,3.08
2023-03-26T07:17:56.548Z,2.90
2023-03-26T07:21:03.314Z,2.58
2023-03-26T07:24:13.791Z,2.50
2023-03-26T07:27:50.776Z,2.63
2023-03-26T07:31:11.613Z,2.40
2023-03-26T07:34:34.004Z,1.90
2023-03-26T07:38:03.956Z,1.70
2023-03-26T07:41:35.417Z,2.05
2023-03-26T07:45:24.892Z,1.67
2023-03-26T07:52:11.776Z,1.20
2023-03-26T07:55:30.129Z,1.45
2023-03-26T07:59:11.455Z,1.85
2023-03-26T08:02:38.081Z,1.67
2023-03-26T08:06:17.076Z,1.20
2023-03-26T08:09:41.115Z,1.55
2023-03-26T08:13:11.057Z,1.80
2023-03-26T08:16:23.985Z,1.70
2023-03-26T08:19:38.782Z,1.95
2023-03-26T08:22:50.874Z,2.20
2023-03-26T08:26:06.745Z,2.08
2023-03-26T08:29:12.016Z,2.00
2023-03-26T08:32:17.285Z,2.13
2023-03-26T08:35:19.606Z,2.83
2023-03-26T08:38:22.484Z,2.35
2023-03-26T08:41:48.542Z,2.75
2023-03-26T08:45:06.342Z,3.60
2023-03-26T08:48:30.033Z,2.95
2023-03-26T08:51:47.517Z,2.35
2023-03-26T08:55:11.158Z,3.55
2023-03-26T08:58:38.995Z,2.85
2023-03-26T09:01:45.691Z,2.70
2023-03-26T09:05:30.400Z,2.47
2023-03-26T09:08:54.427Z,2.35
2023-03-26T09:12:33.136Z,2.35
2023-03-26T09:15:57.533Z,3.58
2023-03-26T09:19:23.962Z,2.72
2023-03-26T09:22:56.589Z,3.10
2023-03-26T09:26:28.004Z,2.63
2023-03-26T09:29:54.486Z,4.78
2023-03-26T09:33:21.851Z,2.47
2023-03-26T09:37:08.861Z,2.10
2023-03-26T09:40:19.276Z,2.00
2023-03-26T09:43:30.702Z,1.60
2023-03-26T09:47:07.049Z,5.63
2023-03-26T09:50:21.741Z,1.60
2023-03-26T09:53:50.710Z,1.73
2023-03-26T09:57:06.340Z,1.80
2023-03-26T10:00:43.952Z,2.30
2023-03-26T10:03:49.410Z,1.10
2023-03-26T10:07:32.916Z,0.20
2023-03-26T10:10:49.113Z,0.45
2023-03-26T10:14:12.317Z,0.40
2023-03-26T10:17:26.983Z,0.47
2023-03-26T10:21:14.499Z,0.30
2023-03-26T10:24:38.648Z,0.30
2023-03-26T10:28:18.661Z,0.50
2023-03-26T10:31:27.184Z,7.13
2023-03-26T10:35:07.084Z,1.10
2023-03-26T10:38:12.329Z,2.35
2023-03-26T10:41:20.724Z,2.60
2023-03-26T10:44:37.222Z,2.28
2023-03-26T10:47:56.976Z,1.20
2023-03-26T10:51:17.845Z,2.30
2023-03-26T10:54:35.652Z,2.00
2023-03-26T10:57:54.338Z,2.30
2023-03-26T11:01:04.069Z,1.88
2023-03-26T11:04:16.883Z,1.80
2023-03-26T11:07:29.362Z,2.97
2023-03-26T11:10:48.431Z,2.55
2023-03-26T11:14:24.357Z,2.83
2023-03-26T11:17:40.608Z,1.88
2023-03-26T11:21:19.771Z,2.45
2023-03-26T11:24:38.894Z,1.95
2023-03-26T11:28:00.126Z,1.88
2023-03-26T11:31:15.376Z,3.25
2023-03-26T11:34:24.619Z,2.28
2023-03-26T11:37:33.272Z,2.40
2023-03-26T11:40:41.708Z,2.53
2023-03-26T11:43:55.512Z,3.00
2023-03-26T11:47:01.698Z,2.70
2023-03-26T11:50:05.235Z,4.90
2023-03-26T11:53:19.667Z,3.78
2023-03-26T11:57:06.402Z,2.00
2023-03-26T12:00:21.746Z,2.25
2023-03-26T12:03:24.373Z,2.10
2023-03-26T12:06:29.102Z,2.25
2023-03-26T12:09:32.654Z,2.80
2023-03-26T12:12:41.183Z,1.95
2023-03-26T12:15:45.466Z,1.30
2023-03-26T12:19:00.111Z,1.00
2023-03-26T12:22:02.562Z,1.40
2023-03-26T12:25:20.735Z,1.75
2023-03-26T12:28:23.505Z,0.70
2023-03-26T12:31:26.716Z,0.68
2023-03-26T12:34:35.467Z,0.80
2023-03-26T12:37:40.270Z,1.00
2023-03-26T12:40:43.736Z,1.17
2023-03-26T12:44:45.988Z,1.23
2023-03-26T12:47:58.450Z,1.60
2023-03-26T12:50:57.397Z,1.60
2023-03-26T12:54:10.111Z,1.60
2023-03-26T12:57:13.427Z,1.55
2023-03-26T13:00:25.121Z,1.43
2023-03-26T13:03:38.042Z,1.38
2023-03-26T13:06:58.883Z,1.17
2023-03-26T13:10:23.642Z,1.23
2023-03-26T13:13:47.687Z,1.13
2023-03-26T13:17:00.046Z,1.95
2023-03-26T13:20:12.642Z,1.30
2023-03-26T13:23:30.577Z,2.20
2023-03-26T13:26:57.956Z,0.82
2023-03-26T13:30:24.316Z,1.58
2023-03-26T13:33:55.814Z,1.33
2023-03-26T13:37:04.459Z,1.40
2023-03-26T13:41:23.652Z,1.63
2023-03-26T13:44:34.291Z,2.38
2023-03-26T13:47:44.742Z,2.47
2023-03-26T13:50:57.265Z,1.92
2023-03-26T13:54:22.474Z,1.30
2023-03-26T13:57:25.687Z,1.65
2023-03-26T14:01:07.807Z,1.47
2023-03-26T14:04:32.650Z,1.00
2023-03-26T14:07:43.044Z,1.50
2023-03-26T14:10:54.217Z,1.90
2023-03-26T14:14:04.187Z,1.35
2023-03-26T14:17:23.212Z,1.00
2023-03-26T14:21:07.782Z,0.90
2023-03-26T14:24:17.681Z,1.08
2023-03-26T14:27:21.914Z,0.90
2023-03-26T14:33:42.908Z,1.50
2023-03-26T14:36:51.153Z,2.05
2023-03-26T14:40:21.092Z,1.30
2023-03-26T14:43:46.502Z,4.78
2023-03-26T14:46:58.149Z,1.25
2023-03-26T14:50:22.399Z,1.30
2023-03-26T14:53:34.526Z,0.95
2023-03-26T14:56:44.948Z,1.30
2023-03-26T15:00:16.071Z,1.45
2023-03-26T15:03:21.126Z,1.50
2023-03-26T15:06:29.338Z,1.40
2023-03-26T15:09:31.625Z,1.05
2023-03-26T15:12:55.047Z,0.80
2023-03-26T15:16:35.796Z,1.00
2023-03-26T15:20:19.979Z,1.30
2023-03-26T15:23:47.421Z,1.65
2023-03-26T15:26:56.910Z,1.00
2023-03-26T15:30:02.020Z,1.00
2023-03-26T15:33:07.868Z,1.05
2023-03-26T15:36:47.677Z,1.33
2023-03-26T15:39:59.434Z,2.75
2023-03-26T15:43:15.751Z,3.22
2023-03-26T15:46:39.473Z,1.85
2023-03-26T15:50:12.714Z,1.40
2023-03-26T15:53:23.686Z,1.40
2023-03-26T15:56:49.244Z,0.90
2023-03-26T16:00:23.008Z,1.40
2023-03-26T16:03:31.107Z,0.98
2023-03-26T16:07:02.977Z,0.80
2023-03-26T16:10:18.919Z,0.98
2023-03-26T16:13:27.060Z,0.60
2023-03-26T16:16:59.319Z,1.20
2023-03-26T16:20:27.066Z,1.00
2023-03-26T16:23:58.670Z,1.15
2023-03-26T16:27:08.440Z,1.20
2023-03-26T16:30:29.244Z,1.10
2023-03-26T16:34:00.137Z,1.00
2023-03-26T16:37:08.940Z,1.60
2023-03-26T16:40:23.670Z,0.98
2023-03-26T16:43:41.022Z,1.15
2023-03-26T16:46:48.233Z,1.98
2023-03-26T16:50:08.882Z,1.83
2023-03-26T16:53:21.430Z,2.03
2023-03-26T16:56:49.534Z,3.03
2023-03-26T17:00:07.558Z,3.97
2023-03-26T17:03:35.570Z,5.18
2023-03-26T17:06:56.800Z,10.52
2023-03-26T17:10:14.604Z,9.90
2023-03-26T17:13:23.471Z,16.58
2023-03-26T17:16:29.611Z,26.02
2023-03-26T17:19:40.267Z,41.95
2023-03-26T17:22:45.461Z,44.47
2023-03-26T17:26:17.046Z,23.98
2023-03-26T17:29:27.434Z,24.15
2023-03-26T17:32:58.941Z,25.90
2023-03-26T17:36:13.575Z,44.75
2023-03-26T17:42:37.723Z,27.67
2023-03-26T17:45:43.895Z,28.80
2023-03-26T17:49:15.330Z,80.97
2023-03-26T17:52:25.500Z,56.88
2023-03-26T17:55:33.097Z,35.05
2023-03-26T17:58:44.850Z,27.63
2023-03-26T18:01:48.378Z,17.85
2023-03-26T18:04:52.960Z,9.27
2023-03-26T18:08:02.339Z,8.05
2023-03-26T18:11:16.193Z,5.90
2023-03-26T18:14:25.000Z,5.85
2023-03-26T18:17:27.432Z,6.82
2023-03-26T18:20:32.034Z,7.72
2023-03-26T18:23:39.671Z,11.00
2023-03-26T18:26:50.309Z,19.10
2023-03-26T18:30:23.521Z,12.15
2023-03-26T18:33:26.143Z,11.52
2023-03-26T18:36:28.591Z,10.18
2023-03-26T18:39:32.414Z,10.02
2023-03-26T18:42:37.115Z,9.15
2023-03-26T18:45:41.364Z,9.68
2023-03-26T18:48:44.563Z,8.50
2023-03-26T18:51:56.699Z,8.23
2023-03-26T18:55:00.507Z,9.63
2023-03-26T18:58:11.329Z,6.63
2023-03-26T19:01:23.761Z,5.28
2023-03-26T19:04:31.405Z,4.28
2023-03-26T19:07:36.000Z,4.38
2023-03-26T19:10:38.967Z,4.55
2023-03-26T19:13:41.946Z,2.80
2023-03-26T19:16:50.322Z,2.70
2023-03-26T19:19:52.919Z,2.72
2023-03-26T19:22:57.045Z,2.90
2023-03-26T19:29:04.696Z,3.38
2023-03-26T19:32:17.597Z,3.00
2023-03-26T19:35:22.969Z,3.05
2023-03-26T19:38:28.267Z,3.58
2023-03-26T19:41:36.988Z,3.15
2023-03-26T19:44:39.806Z,3.17
2023-03-26T19:47:50.358Z,3.17
2023-03-26T19:51:06.684Z,3.00
2023-03-26T19:54:16.151Z,3.65
2023-03-26T19:57:18.721Z,2.75
2023-03-26T20:00:22.289Z,3.10
2023-03-26T20:03:30.411Z,3.42
2023-03-26T20:06:42.438Z,3.50
2023-03-26T20:09:45.931Z,2.67
2023-03-26T20:12:48.343Z,3.22
2023-03-26T20:16:29.996Z,3.33
2023-03-26T20:19:32.414Z,3.75
2023-03-26T20:22:34.902Z,5.50
2023-03-26T20:25:39.382Z,3.92
2023-03-26T20:28:48.242Z,3.15
2023-03-26T20:31:55.368Z,2.67
2023-03-26T20:34:57.810Z,3.05
2023-03-26T20:38:00.136Z,2.97
2023-03-26T20:41:02.441Z,3.17
2023-03-26T20:44:13.612Z,3.30
2023-03-26T20:47:16.652Z,3.88
2023-03-26T20:50:21.974Z,3.07
2023-03-26T20:53:25.083Z,3.55
2023-03-26T20:56:28.257Z,3.03
2023-03-26T20:59:30.861Z,4.05
2023-03-26T21:02:33.261Z,3.88
2023-03-26T21:05:35.964Z,4.20
2023-03-26T21:08:38.694Z,8.75
2023-03-26T21:12:07.251Z,8.20
2023-03-26T21:15:22.530Z,6.22
2023-03-26T21:18:28.366Z,7.28
2023-03-26T21:22:09.625Z,6.25
2023-03-26T21:25:20.901Z,6.53
2023-03-26T21:28:49.906Z,4.22
2023-03-26T21:31:54.205Z,5.60
2023-03-26T21:34:59.503Z,5.22
2023-03-26T21:38:04.274Z,6.00
2023-03-26T21:41:06.964Z,5.45
2023-03-26T21:44:09.411Z,6.00
2023-03-26T21:47:12.138Z,5.80
2023-03-26T21:50:21.967Z,5.20
2023-03-26T21:53:24.660Z,4.88
2023-03-26T21:56:54.910Z,6.90
2023-03-26T22:00:15.663Z,8.35
2023-03-26T22:03:28.933Z,11.20
2023-03-26T22:06:34.248Z,10.90
2023-03-26T22:09:36.841Z,14.70
2023-03-26T22:12:39.780Z,13.43
2023-03-26T22:15:42.127Z,11.23
2023-03-26T22:18:44.508Z,9.70
2023-03-26T22:21:46.866Z,9.00
2023-03-26T22:24:49.455Z,8.50
2023-03-26T22:27:52.821Z,7.80
2023-03-26T22:30:55.579Z,6.00
2023-03-26T22:33:58.492Z,5.85
2023-03-26T22:37:01.006Z,5.20
2023-03-26T22:40:18.008Z,6.75
2023-03-26T22:43:20.454Z,9.00
2023-03-26T22:46:23.870Z,12.90
2023-03-26T22:49:30.342Z,12.23
2023-03-26T22:52:32.842Z,13.27
2023-03-26T22:55:37.590Z,9.82
2023-03-26T22:58:40.066Z,10.82
2023-03-26T23:01:44.374Z,9.02
2023-03-26T23:04:48.110Z,9.48
2023-03-26T23:07:51.951Z,9.77
2023-03-26T23:10:54.651Z,7.45
2023-03-26T23:13:57.213Z,7.25
2023-03-26T23:17:00.656Z,5.88
2023-03-26T23:20:06.236Z,5.35
2023-03-26T23:23:08.524Z,5.50
2023-03-26T23:26:11.226Z,4.93
2023-03-26T23:29:13.982Z,5.75
2023-03-26T23:32:23.789Z,5.38
2023-03-26T23:35:27.535Z,5.30
2023-03-26T23:38:43.591Z,6.68
2023-03-26T23:41:46.683Z,5.20
2023-03-26T23:44:49.474Z,5.95
2023-03-26T23:47:51.860Z,5.00
2023-03-26T23:50:55.207Z,5.80
2023-03-26T23:54:07.804Z,5.40
2023-03-26T23:57:10.711Z,5.70
